createdAt,value
2022-09-21T00:01:33.066Z,8.46
2022-09-21T00:04:04.222Z,8.53
2022-09-21T00:06:35.100Z,8.48
2022-09-21T00:09:08.325Z,8.42
2022-09-21T00:11:38.268Z,8.45
2022-09-21T00:14:14.455Z,8.54
2022-09-21T00:16:43.846Z,8.65
2022-09-21T00:19:12.209Z,8.45
2022-09-21T00:21:40.861Z,8.51
2022-09-21T00:24:09.533Z,8.57
2022-09-21T00:26:37.293Z,8.62
2022-09-21T00:29:06.149Z,8.73
2022-09-21T00:31:34.987Z,8.69
2022-09-21T00:34:03.814Z,8.84
2022-09-21T00:36:31.614Z,9.00
2022-09-21T00:39:02.203Z,9.07
2022-09-21T00:41:33.710Z,9.10
2022-09-21T00:44:22.205Z,9.15
2022-09-21T00:46:53.510Z,9.17
2022-09-21T00:49:23.319Z,9.30
2022-09-21T00:51:53.359Z,9.25
2022-09-21T00:54:35.591Z,9.35
2022-09-21T00:57:04.736Z,9.22
2022-09-21T00:59:35.963Z,9.16
2022-09-21T01:02:04.518Z,9.13
2022-09-21T01:04:33.751Z,9.01
2022-09-21T01:07:12.450Z,9.11
2022-09-21T01:09:45.118Z,9.06
2022-09-21T01:12:45.519Z,8.86
2022-09-21T01:15:51.951Z,9.09
2022-09-21T01:18:59.855Z,9.02
2022-09-21T01:21:35.239Z,8.98
2022-09-21T01:25:13.586Z,8.91
2022-09-21T01:28:16.183Z,8.95
2022-09-21T01:30:49.046Z,9.01
2022-09-21T01:33:53.038Z,9.00
2022-09-21T01:36:27.972Z,8.97
2022-09-21T01:39:08.890Z,9.07
2022-09-21T01:41:41.315Z,9.14
2022-09-21T01:44:21.270Z,9.13
2022-09-21T01:46:50.131Z,9.15
2022-09-21T01:49:28.150Z,9.07
2022-09-21T01:52:30.111Z,9.12
2022-09-21T01:55:35.268Z,9.09
2022-09-21T01:58:33.363Z,9.18
2022-09-21T02:01:01.883Z,9.10
2022-09-21T02:04:04.791Z,9.26
2022-09-21T02:06:32.879Z,9.12
2022-09-21T02:09:00.628Z,9.09
2022-09-21T02:11:28.246Z,9.12
2022-09-21T02:13:56.509Z,9.23
2022-09-21T02:16:50.566Z,9.29
2022-09-21T02:19:31.866Z,9.23
2022-09-21T02:22:33.417Z,8.98
2022-09-21T02:25:47.521Z,9.17
2022-09-21T02:28:21.038Z,9.15
2022-09-21T02:31:06.079Z,9.09
2022-09-21T02:34:26.078Z,8.96
2022-09-21T02:37:36.874Z,8.98
2022-09-21T02:40:34.372Z,9.06
2022-09-21T02:43:21.307Z,8.78
2022-09-21T02:45:59.042Z,8.84
2022-09-21T02:48:51.934Z,8.68
2022-09-21T02:51:36.180Z,8.78
2022-09-21T02:54:09.074Z,8.73
2022-09-21T02:56:38.185Z,8.53
2022-09-21T02:59:08.322Z,8.32
2022-09-21T03:01:36.555Z,8.33
2022-09-21T03:04:06.069Z,8.43
2022-09-21T03:06:34.258Z,8.62
2022-09-21T03:09:02.282Z,8.36
2022-09-21T03:11:30.209Z,8.42
2022-09-21T03:13:57.914Z,8.36
2022-09-21T03:16:25.639Z,8.27
2022-09-21T03:18:53.343Z,8.40
2022-09-21T03:21:22.171Z,8.66
2022-09-21T03:23:49.818Z,8.60
2022-09-21T03:26:17.509Z,8.63
2022-09-21T03:28:46.112Z,8.24
2022-09-21T03:31:13.762Z,8.00
2022-09-21T03:33:41.392Z,8.22
2022-09-21T03:36:11.710Z,8.12
2022-09-21T03:38:39.905Z,8.00
2022-09-21T03:41:07.869Z,8.05
2022-09-21T03:43:35.583Z,7.88
2022-09-21T03:46:03.237Z,8.00
2022-09-21T03:48:31.240Z,7.99
2022-09-21T03:50:59.114Z,8.04
2022-09-21T03:53:26.737Z,8.09
2022-09-21T03:55:54.370Z,7.93
2022-09-21T03:58:22.846Z,8.22
2022-09-21T04:00:50.567Z,8.08
2022-09-21T04:03:18.187Z,8.18
2022-09-21T04:05:45.785Z,7.99
2022-09-21T04:08:15.262Z,7.99
2022-09-21T04:10:43.421Z,7.89
2022-09-21T04:13:11.517Z,8.05
2022-09-21T04:15:39.313Z,7.90
2022-09-21T04:18:07.801Z,7.93
2022-09-21T04:20:37.297Z,8.12
2022-09-21T04:23:04.957Z,8.26
2022-09-21T04:25:34.605Z,8.19
2022-09-21T04:28:03.511Z,8.18
2022-09-21T04:30:37.753Z,8.10
2022-09-21T04:33:06.181Z,8.12
2022-09-21T04:35:34.670Z,7.87
2022-09-21T04:38:02.546Z,7.88
2022-09-21T04:40:32.468Z,7.99
2022-09-21T04:43:00.194Z,8.26
2022-09-21T04:45:30.000Z,8.30
2022-09-21T04:47:59.473Z,8.34
2022-09-21T04:50:27.173Z,8.40
2022-09-21T04:52:54.767Z,8.62
2022-09-21T04:55:22.784Z,8.67
2022-09-21T04:57:51.259Z,8.65
2022-09-21T05:00:19.794Z,8.77
2022-09-21T05:02:47.453Z,8.68
2022-09-21T05:05:15.263Z,8.65
2022-09-21T05:07:42.909Z,8.88
2022-09-21T05:10:12.107Z,8.87
2022-09-21T05:12:41.187Z,8.96
2022-09-21T05:15:13.535Z,9.06
2022-09-21T05:17:43.080Z,9.16
2022-09-21T05:20:12.654Z,9.37
2022-09-21T05:22:40.300Z,9.23
2022-09-21T05:25:09.546Z,9.32
2022-09-21T05:27:37.373Z,9.44
2022-09-21T05:30:08.446Z,9.47
2022-09-21T05:32:58.148Z,9.50
2022-09-21T05:35:36.383Z,9.57
2022-09-21T05:38:20.293Z,9.63
2022-09-21T05:40:53.254Z,9.80
2022-09-21T05:43:22.549Z,9.83
2022-09-21T05:46:34.278Z,9.89
2022-09-21T05:49:33.576Z,9.93
2022-09-21T05:52:59.364Z,9.95
2022-09-21T05:55:56.792Z,10.06
2022-09-21T05:58:59.563Z,10.09
2022-09-21T06:01:58.988Z,10.09
2022-09-21T06:04:28.061Z,10.31
2022-09-21T06:06:55.731Z,10.30
2022-09-21T06:09:25.985Z,10.31
2022-09-21T06:11:55.471Z,10.16
2022-09-21T06:14:25.758Z,10.23
2022-09-21T06:16:56.286Z,10.37
2022-09-21T06:19:24.874Z,10.54
2022-09-21T06:21:52.517Z,10.68
2022-09-21T06:24:22.950Z,10.77
2022-09-21T06:26:51.823Z,10.74
2022-09-21T06:29:23.691Z,10.93
2022-09-21T06:31:52.452Z,11.00
2022-09-21T06:34:20.149Z,10.84
2022-09-21T06:36:48.725Z,10.99
2022-09-21T06:39:17.238Z,10.90
2022-09-21T06:41:45.842Z,10.90
2022-09-21T06:44:13.489Z,11.05
2022-09-21T06:46:42.978Z,11.09
2022-09-21T06:49:12.494Z,11.14
2022-09-21T06:51:40.164Z,11.15
2022-09-21T06:54:08.899Z,11.27
2022-09-21T06:56:37.599Z,11.29
2022-09-21T06:59:08.446Z,12.08
2022-09-21T07:01:36.586Z,11.96
2022-09-21T07:04:07.099Z,13.03
2022-09-21T07:06:34.903Z,17.14
2022-09-21T07:11:52.053Z,15.38
2022-09-21T07:14:22.637Z,14.14
2022-09-21T07:16:53.693Z,13.71
2022-09-21T07:19:21.377Z,13.88
2022-09-21T07:21:49.026Z,14.03
2022-09-21T07:24:16.797Z,13.92
2022-09-21T07:26:44.598Z,14.13
2022-09-21T07:29:16.048Z,13.84
2022-09-21T07:31:46.517Z,13.78
2022-09-21T07:34:14.437Z,14.28
2022-09-21T07:36:42.348Z,14.33
2022-09-21T07:39:10.934Z,14.26
2022-09-21T07:41:39.161Z,14.70
2022-09-21T07:44:06.895Z,14.95
2022-09-21T07:46:37.208Z,15.74
2022-09-21T07:49:06.204Z,15.17
2022-09-21T07:51:33.822Z,15.56
2022-09-21T07:54:01.466Z,16.18
2022-09-21T07:56:29.904Z,16.17
2022-09-21T07:59:06.618Z,15.70
2022-09-21T08:01:42.705Z,15.78
2022-09-21T08:04:12.417Z,15.75
2022-09-21T08:06:42.048Z,15.93
2022-09-21T08:09:16.774Z,15.98
2022-09-21T08:11:47.901Z,15.03
2022-09-21T08:14:23.780Z,15.70
2022-09-21T08:16:55.775Z,16.00
2022-09-21T08:19:26.041Z,16.02
2022-09-21T08:21:57.938Z,16.59
2022-09-21T08:24:27.012Z,16.83
2022-09-21T08:26:57.939Z,17.23
2022-09-21T08:29:29.928Z,16.41
2022-09-21T08:31:59.458Z,16.83
2022-09-21T08:34:28.128Z,16.89
2022-09-21T08:36:56.047Z,17.45
2022-09-21T08:39:25.657Z,16.87
2022-09-21T08:42:39.793Z,17.19
2022-09-21T08:45:17.841Z,17.41
2022-09-21T08:47:51.061Z,17.50
2022-09-21T08:50:35.904Z,17.37
2022-09-21T08:53:15.657Z,16.58
2022-09-21T08:55:43.537Z,17.47
2022-09-21T08:58:26.841Z,17.41
2022-09-21T09:01:22.678Z,17.14
2022-09-21T09:04:43.084Z,16.77
2022-09-21T09:07:57.297Z,17.35
2022-09-21T09:10:54.921Z,17.48
2022-09-21T09:14:15.718Z,17.88
2022-09-21T09:17:26.824Z,17.55
2022-09-21T09:20:31.542Z,17.72
2022-09-21T09:23:23.198Z,17.57
2022-09-21T09:25:56.758Z,17.45
2022-09-21T09:28:36.027Z,17.58
2022-09-21T09:31:32.374Z,17.58
2022-09-21T09:34:33.014Z,17.57
2022-09-21T09:37:17.667Z,17.97
2022-09-21T09:39:56.196Z,17.84
2022-09-21T09:43:04.864Z,17.70
2022-09-21T09:46:29.795Z,17.85
2022-09-21T09:49:24.714Z,18.65
2022-09-21T09:51:52.571Z,18.43
2022-09-21T09:54:26.726Z,18.54
2022-09-21T09:56:55.247Z,18.81
2022-09-21T09:59:54.631Z,18.72
2022-09-21T10:02:27.250Z,17.73
2022-09-21T10:05:09.007Z,16.87
2022-09-21T10:07:40.826Z,17.61
2022-09-21T10:10:33.763Z,18.16
2022-09-21T10:13:34.400Z,18.23
2022-09-21T10:16:12.234Z,17.37
2022-09-21T10:18:51.613Z,17.32
2022-09-21T10:21:33.724Z,18.12
2022-09-21T10:24:24.817Z,17.30
2022-09-21T10:27:12.504Z,16.97
2022-09-21T10:29:49.770Z,16.74
2022-09-21T10:32:23.679Z,17.00
2022-09-21T10:35:20.954Z,17.75
2022-09-21T10:37:54.534Z,18.41
2022-09-21T10:40:22.282Z,18.14
2022-09-21T10:42:56.163Z,18.15
2022-09-21T10:45:37.257Z,18.71
2022-09-21T10:48:18.154Z,18.64
2022-09-21T10:50:52.110Z,17.70
2022-09-21T10:53:34.413Z,17.15
2022-09-21T10:56:17.576Z,17.14
2022-09-21T10:59:30.754Z,17.96
2022-09-21T11:02:01.660Z,18.57
2022-09-21T11:04:46.568Z,18.10
2022-09-21T11:07:35.657Z,18.37
2022-09-21T11:10:21.973Z,18.78
2022-09-21T11:13:25.889Z,18.43
2022-09-21T11:16:26.510Z,18.07
2022-09-21T11:19:32.514Z,17.66
2022-09-21T11:22:40.954Z,17.14
2022-09-21T11:25:50.686Z,17.27
2022-09-21T11:29:09.164Z,17.20
2022-09-21T11:32:28.248Z,17.14
2022-09-21T11:35:38.937Z,17.42
2022-09-21T11:38:39.870Z,17.36
2022-09-21T11:41:46.267Z,17.29
2022-09-21T11:44:58.439Z,17.53
2022-09-21T11:47:58.689Z,17.42
2022-09-21T11:50:45.262Z,17.52
2022-09-21T11:53:52.170Z,17.51
2022-09-21T11:56:55.335Z,17.20
2022-09-21T11:59:40.818Z,17.13
2022-09-21T12:02:52.443Z,17.23
2022-09-21T12:06:06.711Z,16.98
2022-09-21T12:09:23.781Z,16.71
2022-09-21T12:12:13.152Z,16.97
2022-09-21T12:15:18.784Z,16.88
2022-09-21T12:18:29.398Z,16.82
2022-09-21T12:21:32.008Z,16.73
2022-09-21T12:24:22.285Z,16.86
2022-09-21T12:27:01.512Z,17.90
2022-09-21T12:29:49.902Z,17.71
2022-09-21T12:33:25.598Z,17.46
2022-09-21T12:36:17.652Z,16.86
2022-09-21T12:38:49.959Z,16.66
2022-09-21T12:41:40.021Z,16.61
2022-09-21T12:44:52.227Z,16.54
2022-09-21T12:47:58.324Z,17.75
2022-09-21T12:50:52.349Z,18.39
2022-09-21T12:53:27.411Z,18.83
2022-09-21T12:56:58.743Z,19.00
2022-09-21T12:59:43.709Z,18.32
2022-09-21T13:02:33.449Z,18.91
2022-09-21T13:05:27.739Z,18.17
2022-09-21T13:08:26.526Z,18.01
2022-09-21T13:11:08.176Z,17.31
2022-09-21T13:13:53.016Z,17.04
2022-09-21T13:16:39.065Z,17.08
2022-09-21T13:19:30.221Z,16.76
2022-09-21T13:22:33.805Z,16.76
2022-09-21T13:25:25.949Z,16.87
2022-09-21T13:28:14.396Z,17.68
2022-09-21T13:30:44.393Z,17.97
2022-09-21T13:33:20.501Z,18.55
2022-09-21T13:35:53.041Z,18.99
2022-09-21T13:38:41.486Z,18.65
2022-09-21T13:41:18.708Z,18.78
2022-09-21T13:44:01.320Z,19.44
2022-09-21T13:46:35.791Z,18.65
2022-09-21T13:49:14.035Z,19.14
2022-09-21T13:52:15.762Z,18.62
2022-09-21T13:54:56.781Z,18.67
2022-09-21T13:57:49.158Z,18.42
2022-09-21T14:00:20.219Z,18.68
2022-09-21T14:02:51.620Z,18.51
2022-09-21T14:05:35.099Z,18.30
2022-09-21T14:08:23.688Z,17.90
2022-09-21T14:11:37.792Z,17.44
2022-09-21T14:14:28.379Z,17.15
2022-09-21T14:17:02.314Z,17.07
2022-09-21T14:19:32.088Z,16.56
2022-09-21T14:22:06.426Z,16.53
2022-09-21T14:24:39.163Z,16.34
2022-09-21T14:27:45.439Z,16.08
2022-09-21T14:30:25.689Z,15.96
2022-09-21T14:33:54.458Z,15.78
2022-09-21T14:36:51.015Z,15.67
2022-09-21T14:39:37.795Z,15.36
2022-09-21T14:42:19.714Z,15.47
2022-09-21T14:44:51.993Z,15.36
2022-09-21T14:47:25.549Z,15.10
2022-09-21T14:50:19.295Z,14.82
2022-09-21T14:53:35.759Z,14.78
2022-09-21T14:56:39.107Z,14.66
2022-09-21T14:59:25.728Z,14.55
2022-09-21T15:02:35.654Z,14.49
2022-09-21T15:05:19.202Z,14.19
2022-09-21T15:08:41.621Z,14.32
2022-09-21T15:11:30.511Z,14.43
2022-09-21T15:14:47.044Z,14.44
2022-09-21T15:17:30.156Z,14.65
2022-09-21T15:20:23.669Z,14.88
2022-09-21T15:22:59.332Z,15.04
2022-09-21T15:25:32.857Z,14.99
2022-09-21T15:28:04.268Z,14.85
2022-09-21T15:30:33.380Z,14.73
2022-09-21T15:33:03.922Z,14.78
2022-09-21T15:35:34.372Z,14.56
2022-09-21T15:38:02.923Z,14.41
2022-09-21T15:40:47.637Z,14.28
2022-09-21T15:43:21.534Z,14.08
2022-09-21T15:45:54.134Z,13.91
2022-09-21T15:48:36.663Z,13.98
2022-09-21T15:51:33.795Z,14.08
2022-09-21T15:55:07.305Z,14.07
2022-09-21T15:57:43.088Z,14.18
2022-09-21T16:00:20.789Z,14.10
2022-09-21T16:03:26.116Z,14.25
2022-09-21T16:05:57.132Z,14.27
2022-09-21T16:08:36.665Z,14.31
2022-09-21T16:11:27.451Z,14.35
2022-09-21T16:14:30.845Z,14.13
2022-09-21T16:17:17.521Z,14.15
2022-09-21T16:20:19.956Z,13.98
2022-09-21T16:22:54.984Z,13.86
2022-09-21T16:25:38.402Z,13.68
2022-09-21T16:28:18.766Z,13.57
2022-09-21T16:30:53.358Z,13.33
2022-09-21T16:33:49.139Z,13.59
2022-09-21T16:36:22.291Z,13.65
2022-09-21T16:38:52.958Z,13.63
2022-09-21T16:41:36.458Z,13.48
2022-09-21T16:44:05.375Z,13.44
2022-09-21T16:46:35.522Z,13.47
2022-09-21T16:49:05.003Z,13.14
2022-09-21T16:51:32.720Z,13.22
2022-09-21T16:54:03.121Z,13.23
2022-09-21T16:56:32.712Z,13.24
2022-09-21T16:59:03.886Z,13.15
2022-09-21T17:01:31.737Z,12.90
2022-09-21T17:04:01.681Z,12.83
2022-09-21T17:06:31.063Z,13.07
2022-09-21T17:09:01.012Z,12.85
2022-09-21T17:11:29.909Z,12.72
2022-09-21T17:14:01.439Z,12.58
2022-09-21T17:16:30.134Z,12.60
2022-09-21T17:18:59.600Z,12.66
2022-09-21T17:21:29.086Z,12.59
2022-09-21T17:23:58.688Z,12.81
2022-09-21T17:26:28.230Z,12.70
2022-09-21T17:28:56.805Z,12.69
2022-09-21T17:31:28.279Z,12.83
2022-09-21T17:33:57.321Z,12.82
2022-09-21T17:36:25.837Z,12.92
2022-09-21T17:38:57.122Z,12.96
2022-09-21T17:41:46.096Z,12.87
2022-09-21T17:44:46.192Z,12.85
2022-09-21T17:47:28.355Z,12.56
2022-09-21T17:50:28.001Z,12.51
2022-09-21T17:53:17.425Z,12.16
2022-09-21T17:55:58.182Z,12.18
2022-09-21T17:58:48.663Z,12.10
2022-09-21T18:01:40.029Z,11.95
2022-09-21T18:04:11.175Z,11.88
2022-09-21T18:06:39.667Z,11.90
2022-09-21T18:09:07.964Z,12.06
2022-09-21T18:12:39.625Z,12.07
2022-09-21T18:15:34.743Z,12.13
2022-09-21T18:18:22.597Z,12.12
2022-09-21T18:21:05.547Z,12.07
2022-09-21T18:23:50.192Z,12.05
2022-09-21T18:26:20.702Z,12.19
2022-09-21T18:28:57.177Z,12.04
2022-09-21T18:32:03.478Z,11.81
2022-09-21T18:35:14.148Z,11.83
2022-09-21T18:38:36.657Z,11.45
2022-09-21T18:42:09.284Z,11.61
2022-09-21T18:44:51.002Z,11.71
2022-09-21T18:47:32.864Z,11.67
2022-09-21T18:50:33.583Z,11.54
2022-09-21T18:53:56.214Z,11.53
2022-09-21T18:56:35.250Z,11.48
2022-09-21T18:59:07.272Z,11.33
2022-09-21T19:01:35.618Z,11.23
2022-09-21T19:04:04.305Z,11.31
2022-09-21T19:07:02.707Z,11.38
2022-09-21T19:10:15.624Z,11.32
2022-09-21T19:13:09.512Z,11.54
2022-09-21T19:16:32.076Z,11.32
2022-09-21T19:20:04.411Z,11.48
2022-09-21T19:23:23.209Z,11.37
2022-09-21T19:26:50.170Z,11.37
2022-09-21T19:30:06.296Z,11.11
2022-09-21T19:32:53.277Z,11.03
2022-09-21T19:35:28.535Z,10.88
2022-09-21T19:38:02.976Z,10.81
2022-09-21T19:40:38.870Z,10.55
2022-09-21T19:43:41.740Z,10.77
2022-09-21T19:46:39.169Z,10.91
2022-09-21T19:49:19.879Z,10.62
2022-09-21T19:51:56.025Z,10.65
2022-09-21T19:54:55.292Z,10.82
2022-09-21T19:57:43.871Z,10.72
2022-09-21T20:00:18.053Z,10.64
2022-09-21T20:03:11.202Z,10.62
2022-09-21T20:06:19.785Z,10.69
2022-09-21T20:09:24.867Z,10.70
2022-09-21T20:12:24.377Z,10.63
2022-09-21T20:15:15.997Z,10.53
2022-09-21T20:18:39.532Z,10.48
2022-09-21T20:21:19.264Z,10.63
2022-09-21T20:23:52.013Z,10.54
2022-09-21T20:26:28.817Z,10.41
2022-09-21T20:28:58.246Z,10.20
2022-09-21T20:31:27.278Z,9.93
2022-09-21T20:33:55.860Z,9.89
2022-09-21T20:36:24.533Z,9.77
2022-09-21T20:38:52.234Z,9.49
2022-09-21T20:41:22.353Z,9.37
2022-09-21T20:43:50.947Z,9.70
2022-09-21T20:46:18.874Z,9.63
2022-09-21T20:48:47.401Z,9.64
2022-09-21T20:51:15.050Z,9.53
2022-09-21T20:53:45.425Z,9.70
2022-09-21T20:56:14.015Z,9.70
2022-09-21T20:58:41.661Z,9.60
2022-09-21T21:01:10.864Z,9.74
2022-09-21T21:03:40.421Z,9.81
2022-09-21T21:06:18.785Z,9.83
2022-09-21T21:08:47.468Z,9.84
2022-09-21T21:11:15.107Z,9.75
2022-09-21T21:13:44.766Z,9.67
2022-09-21T21:16:12.728Z,9.80
2022-09-21T21:18:41.689Z,9.88
2022-09-21T21:21:09.894Z,9.93
2022-09-21T21:23:56.273Z,9.95
2022-09-21T21:26:38.481Z,9.91
2022-09-21T21:29:13.455Z,9.76
2022-09-21T21:31:41.604Z,9.70
2022-09-21T21:34:10.307Z,9.83
2022-09-21T21:36:40.356Z,9.83
2022-09-21T21:39:10.854Z,9.67
2022-09-21T21:41:43.255Z,9.69
2022-09-21T21:44:13.001Z,9.54
2022-09-21T21:46:41.866Z,9.52
2022-09-21T21:49:11.402Z,9.19
2022-09-21T21:51:40.875Z,9.19
2022-09-21T21:54:09.493Z,9.36
2022-09-21T21:56:38.101Z,9.15
2022-09-21T21:59:06.849Z,9.06
2022-09-21T22:01:35.509Z,9.01
2022-09-21T22:04:04.178Z,9.09
2022-09-21T22:06:35.814Z,8.76
2022-09-21T22:09:07.893Z,8.90
2022-09-21T22:11:36.804Z,8.67
2022-09-21T22:14:08.350Z,8.76
2022-09-21T22:16:40.561Z,8.61
2022-09-21T22:19:09.625Z,8.84
2022-09-21T22:21:48.174Z,9.10
2022-09-21T22:24:18.205Z,8.87
2022-09-21T22:26:48.577Z,8.92
2022-09-21T22:29:17.488Z,8.87
2022-09-21T22:31:49.737Z,8.73
2022-09-21T22:34:20.730Z,9.02
2022-09-21T22:36:50.819Z,8.93
2022-09-21T22:39:20.382Z,9.01
2022-09-21T22:41:48.093Z,9.11
2022-09-21T22:44:18.749Z,8.86
2022-09-21T22:46:49.980Z,8.63
2022-09-21T22:49:17.804Z,8.51
2022-09-21T22:51:45.478Z,8.32
2022-09-21T22:54:13.081Z,8.21
2022-09-21T22:56:40.687Z,8.41
2022-09-21T22:59:09.634Z,8.42
2022-09-21T23:01:40.364Z,8.20
2022-09-21T23:04:13.881Z,8.06
2022-09-21T23:06:45.382Z,7.98
2022-09-21T23:09:19.872Z,8.16
2022-09-21T23:11:53.718Z,8.20
2022-09-21T23:14:23.562Z,8.00
2022-09-21T23:16:53.042Z,8.08
2022-09-21T23:19:20.768Z,8.03
2022-09-21T23:21:51.138Z,7.71
2022-09-21T23:24:20.202Z,7.53
2022-09-21T23:26:51.742Z,7.57
2022-09-21T23:29:20.483Z,7.68
2022-09-21T23:31:49.061Z,8.00
2022-09-21T23:34:17.522Z,7.94
2022-09-21T23:36:46.272Z,8.13
2022-09-21T23:39:16.018Z,7.76
2022-09-21T23:41:44.589Z,7.57
2022-09-21T23:44:12.364Z,7.82
2022-09-21T23:46:41.851Z,7.89
2022-09-21T23:49:10.698Z,8.07
2022-09-21T23:51:39.828Z,8.20
2022-09-21T23:54:08.211Z,8.01
2022-09-21T23:56:36.293Z,8.03
2022-09-21T23:59:04.090Z,7.91
